Bookmark and Share
Track history (hours):
 

Uacc Ibn Al Atheer

Last reported at 2013-May-27 03:12 UTC. Time now 2014-Apr-23 19:05 UTC.
Position N 26°07' E 055°14'.
Warning: this ship's position is months out of date.

Length 180 m; draft 11.3 m.

Type: Tanker. MMSI: 351616000.

NotesDate/timePositionNaut miles runAvg speedWind from/ knotsBaromVisibWave heightAir tempDewpointWater temp
2013-May-27 03:12N 26°07' E 055°14'913.7
2013-May-27 02:33N 26°08' E 055°04'1413.8
2013-May-27 01:32N 26°09' E 054°48'2612.8
2013-May-26 23:32N 26°12' E 054°20'1313.0
2013-May-26 22:32N 26°14' E 054°06'1313.1
2013-May-26 21:33N 26°15' E 053°51'1613.1
2013-May-26 20:20N 26°17' E 053°34'2413.7
2013-May-26 18:33N 26°15' E 053°07'1914.0
2013-May-26 17:13N 26°14' E 052°46'1113.8
2013-May-26 16:23N 26°12' E 052°33'1113.0
2013-May-26 15:33N 26°08' E 052°22'1413.1
2013-May-26 14:30N 26°04' E 052°07'1413.2
2013-May-26 13:25N 25°59' E 051°52'1111.7
2013-May-26 12:28N 25°55' E 051°41'3 3.8
2013-May-26 11:33N 25°56' E 051°37'0 0.0
2013-May-26 09:25N 25°56' E 051°37'0 0.0
2013-May-26 04:25N 25°56' E 051°37'0 0.0
2013-May-26 03:32N 25°56' E 051°37'0 0.0
2013-May-26 02:33N 25°56' E 051°37'0 0.0
2013-May-26 01:31N 25°56' E 051°37'0 0.0
2013-May-26 00:07N 25°56' E 051°37'0 0.0
2013-May-25 17:32N 25°56' E 051°37'0 0.0
2013-May-25 16:33N 25°56' E 051°37'0 0.0
2013-May-25 13:33N 25°56' E 051°37'0 0.0
2013-May-25 12:05N 25°56' E 051°37'0 0.0
2013-May-25 11:10N 25°56' E 051°37'0 0.0
2013-May-25 10:07N 25°56' E 051°37'6 3.7
2013-May-25 08:33N 25°59' E 051°42'7 7.2
2013-May-25 07:33N 26°06' E 051°38'1313.3
2013-May-25 06:33N 26°18' E 051°33'3013.9
2013-May-25 04:21N 26°46' E 051°21'14 2.9
2013-May-24 23:23N 26°60' E 051°15'0 0.0
2013-May-24 22:29N 26°60' E 051°15'0 0.1
2013-May-24 21:23N 26°60' E 051°15'0 0.1
2013-May-24 20:29N 26°60' E 051°15'0 0.0
2013-May-24 13:14N 26°60' E 051°15'0 0.0
2013-May-24 11:05N 26°60' E 051°15'0 0.0
2013-May-23 20:17N 26°60' E 051°15'0 0.0
2013-May-23 18:05N 26°60' E 051°15'0 0.0
2013-May-23 16:26N 26°60' E 051°15'0 0.0
2013-May-23 14:23N 26°60' E 051°15'0 0.0
2013-May-23 12:08N 26°60' E 051°15'0 0.0
2013-May-23 10:11N 26°60' E 051°15'0 0.0
2013-May-23 09:14N 26°60' E 051°15'0 0.0
2013-May-23 08:29N 26°60' E 051°15'0 0.0
2013-May-23 07:29N 26°60' E 051°15'0 0.0
2013-May-23 06:05N 26°60' E 051°15'0 0.0
2013-May-23 04:26N 26°60' E 051°15'0 0.1
2013-May-23 03:32N 26°60' E 051°15'0 0.0
2013-May-23 02:17N 26°60' E 051°15'0 0.0
2013-May-21 05:29N 26°60' E 051°15'  

Dump ship's entire track history

sailing weather and tide predictions

Uacc Ibn Al Atheer — HPBI — position and weather